Main page
METAR-TAF:

METAR-TAF

Airports :

Shawbury, England

RAF Shawbury

latitude: 52-48N, longitude: 002-40W, elevation: 76 m

Current weather observation

The report was made 46 minutes ago, at 20:50 UTC
Wind 7 kt from the South
Temperature 10°C
Humidity 76%
Pressure 1009 hPa
Visibility 10 km or more

METAR: EGOS 232050Z AUTO 19007KT 9999 BKN023/// 10/06 Q1009

Time: 21:36 (21:36 UTC)

Forecast

The report was made 5 hours and 13 minutes ago, at 16:23 UTC
Forecast valid from 23 at 18 UTC to 23 at 22 UTC
Wind 12 kt from the Southwest with gusts up to 22 kt
Visibility 10 km or more
Scattered clouds at a height of 2800 ft
Becoming
from 23 at 18 UTC to 23 at 20 UTC
Wind 8 kt from the South

TAF: EGOS 231623Z 2318/2322 23012G22KT 9999 SCT028 BECMG 2318/2320 18008KT

Weather observations and forecasts of more than 4000 airports (METAR and TAF reports).

The available stations are represented by yellow and red dots on the map.

Hover mouse over dot to see the name of the station.

Then click to see weather observations and forecasts.

To change the map : click on the green buttons with a black cross to zoom in, on the green button with a dash to zoom out, or on the green arrows for adjacent maps.


METAR-TAF: